Date,TemperatureHighF,TemperatureAvgF,TemperatureLowF,DewpointHighF,DewpointAvgF,DewpointLowF,HumidityHigh,HumidityAvg,HumidityLow,PressureMaxIn,PressureMinIn,WindSpeedMaxMPH,WindSpeedAvgMPH,GustSpeedMaxMPH,PrecipitationSumIn
2013-1-1,47.4,43.9,39.9,45.8,35.8,19.4,97,76,39,30.23,30.06,4,0,5,0.24
2013-1-2,43.7,37.7,34.7,43.2,36.4,33.3,98,95,90,30.26,30.02,3,1,6,0.03
2013-1-3,37.9,34.1,28.0,37.0,32.1,24.4,100,92,79,30.42,30.22,4,1,6,0.01
2013-1-4,40.6,30.4,25.0,26.2,22.9,21.4,90,75,47,30.53,30.41,4,2,10,0.00
2013-1-5,46.8,35.2,26.9,30.1,22.6,18.4,78,61,39,30.55,30.36,5,2,8,0.00
2013-1-6,46.6,38.2,33.2,38.0,32.8,28.0,94,81,69,30.35,30.18,4,2,6,0.00
2013-1-7,51.0,37.7,29.6,30.4,27.1,24.9,89,68,37,30.53,30.34,7,2,8,0.00
2013-1-8,53.0,40.8,32.0,44.2,34.3,27.2,94,78,65,30.56,30.45,4,2,8,0.00
2013-1-9,55.0,50.2,43.8,51.8,48.7,41.9,99,94,86,30.57,30.49,3,0,5,0.00
2013-1-10,62.0,54.8,51.6,53.1,51.0,48.6,95,87,71,30.58,30.44,2,1,5,0.00
2013-1-11,57.0,55.0,51.3,56.7,54.7,51.0,99,99,99,30.28,30.22,5,3,10,0.56
2013-1-12,67.8,60.6,57.0,61.4,58.1,56.0,99,92,77,30.25,30.14,7,2,16,0.01
2013-1-13,65.1,60.1,57.7,57.9,55.9,53.5,97,86,74,30.17,30.08,9,4,16,0.08
2013-1-14,58.7,54.6,43.7,57.9,54.1,43.2,99,98,92,30.23,30.08,6,3,8,1.01
2013-1-15,51.1,47.7,43.3,50.8,47.4,43.0,99,99,98,30.21,30.12,5,1,8,1.35
2013-1-16,54.4,50.2,44.5,54.4,50.1,44.2,100,100,98,30.13,30.04,5,1,8,0.37
2013-1-17,51.0,41.6,31.2,50.7,41.1,28.6,99,98,90,30.32,29.87,6,2,9,1.97
2013-1-18,46.6,35.7,27.2,28.5,23.5,17.3,90,64,34,30.64,30.32,4,1,7,0.00
2013-1-19,53.2,39.4,29.7,32.3,26.9,21.4,83,62,30,30.60,30.29,5,2,7,0.00
2013-1-20,55.3,43.3,35.7,34.7,28.8,20.9,73,57,41,30.29,30.17,5,2,7,0.00
2013-1-21,50.5,40.0,30.2,29.6,24.0,12.9,73,54,34,30.20,30.07,4,2,9,0.00
2013-1-22,31.8,24.4,18.7,14.7,5.4,-1.8,64,45,26,30.41,30.12,4,2,10,0.00
2013-1-23,42.5,29.8,19.4,23.9,14.1,2.7,66,52,41,30.50,30.23,3,1,5,0.00
2013-1-24,40.5,32.9,21.1,29.2,16.3,3.5,70,51,32,30.54,30.14,5,2,11,0.00
2013-1-25,34.7,25.3,19.6,34.2,18.6,4.8,98,77,51,30.57,30.24,9,3,15,0.01
2013-1-26,46.1,37.2,29.7,34.1,28.7,26.3,98,73,47,30.47,30.30,3,1,5,0.01
2013-1-27,41.7,33.4,27.5,31.3,28.2,25.7,95,81,63,30.63,30.47,6,1,9,0.01
2013-1-28,62.5,48.0,35.2,49.3,40.8,30.1,88,77,58,30.57,30.33,5,2,8,0.00
2013-1-29,68.4,56.4,47.9,56.7,50.0,43.0,97,80,53,30.34,30.06,7,2,14,0.17
2013-1-30,60.4,56.1,42.8,58.8,54.8,40.6,98,95,90,30.06,29.52,11,6,21,2.27
2013-1-31,42.7,35.5,28.4,40.9,22.9,17.5,94,61,41,30.13,29.58,8,4,14,0.00
2013-2-1,40.1,27.2,19.2,31.0,14.6,7.6,91,59,46,30.49,30.04,13,4,17,0.01
2013-2-2,39.6,28.8,18.8,31.3,18.8,9.5,93,68,35,30.50,30.18,6,2,9,0.00
2013-2-3,44.1,34.6,26.4,31.7,25.4,20.7,91,70,40,30.18,30.00,7,3,13,0.00
2013-2-4,49.2,35.1,23.3,26.8,22.3,19.2,84,62,35,30.27,30.12,7,2,9,0.00
2013-2-5,56.0,45.6,37.0,37.4,28.5,22.7,65,52,36,30.12,30.02,6,1,9,0.00
2013-2-6,56.6,45.8,35.3,35.6,28.9,22.9,84,54,28,30.32,30.10,4,1,5,0.00
2013-2-7,45.0,40.8,37.3,40.2,30.7,21.5,98,71,40,30.34,30.10,2,0,5,0.37
2013-2-8,40.7,38.7,31.5,39.9,37.4,26.6,98,95,82,30.24,30.03,4,1,5,0.02
2013-2-9,55.8,40.6,27.8,26.5,18.3,1.7,85,49,12,30.46,30.20,5,2,12,0.00
2013-2-10,49.7,42.2,37.4,44.1,28.1,19.9,98,60,40,30.47,30.26,6,2,9,0.46
2013-2-11,55.1,49.8,44.9,53.4,43.5,29.2,99,82,45,30.27,30.09,7,2,9,0.05
2013-2-12,50.5,42.8,37.1,37.4,29.0,24.1,92,59,41,30.21,30.03,4,1,9,0.11
2013-2-13,51.5,38.9,32.2,45.1,35.8,29.0,99,89,59,30.03,29.75,7,2,13,0.26
2013-2-14,51.7,38.5,29.7,33.5,29.3,26.8,92,72,42,30.18,30.01,5,1,8,0.00
2013-2-15,55.4,42.5,32.5,37.6,30.4,25.6,91,65,32,30.20,30.05,7,2,12,0.00
2013-2-16,32.4,28.3,20.4,28.7,21.7,9.5,92,77,54,30.15,29.96,7,3,13,0.00
2013-2-17,34.0,25.7,18.3,11.4,8.4,3.8,65,49,28,30.42,30.14,8,4,16,0.00
2013-2-18,50.0,34.8,25.2,25.2,17.8,10.3,58,50,36,30.51,30.28,9,2,11,0.00
2013-2-19,51.6,40.6,32.8,41.9,29.8,20.5,98,69,36,30.29,29.99,8,4,14,0.08
2013-2-20,42.9,35.8,27.1,12.9,10.1,7.4,51,35,23,30.28,30.18,5,2,7,0.00
2013-2-21,57.7,40.1,26.3,34.0,15.8,4.2,90,41,13,30.35,30.21,4,1,6,0.25
2013-2-22,37.5,35.0,32.2,37.0,34.2,30.9,99,97,90,30.37,30.21,4,2,8,0.32
2013-2-23,51.1,45.2,35.7,49.6,44.1,35.2,99,96,82,30.22,29.94,3,0,6,0.13
2013-2-24,54.0,43.5,35.2,42.3,32.0,24.4,97,68,35,30.14,29.96,4,2,7,0.00
2013-2-25,43.9,37.8,31.6,30.4,26.0,22.6,95,63,51,30.24,30.10,3,1,7,0.01
2013-2-26,39.2,34.1,31.0,38.9,33.5,30.2,99,98,90,30.13,29.70,4,1,9,1.32
2013-2-27,55.3,42.4,33.1,39.4,31.6,22.6,93,69,32,29.92,29.78,7,2,9,0.00
2013-2-28,39.4,35.0,32.1,30.6,26.1,22.9,81,70,56,29.92,29.82,9,3,12,0.00
2013-3-1,36.2,32.9,29.3,29.5,27.6,26.5,91,81,70,30.08,30.02,4,2,7,0.00
2013-3-2,38.0,30.7,24.5,28.6,25.7,20.8,94,82,54,30.08,29.98,5,2,9,0.02
2013-3-3,32.0,25.0,20.2,21.2,17.2,14.7,91,73,55,30.17,30.05,5,3,9,0.00
2013-3-4,49.8,35.2,22.2,25.0,17.7,14.6,78,52,28,30.31,30.14,6,2,9,0.00
2013-3-5,47.4,42.5,33.8,45.6,32.9,24.8,98,70,49,30.20,29.74,7,2,15,0.61
2013-3-6,33.6,28.6,24.8,26.8,23.3,19.5,92,80,63,30.32,29.76,9,4,16,0.00
2013-3-7,41.0,31.0,25.6,30.0,25.9,23.4,93,82,64,30.42,30.28,7,4,11,0.00
2013-3-8,51.1,36.1,25.1,25.7,21.7,12.5,91,62,22,30.49,30.40,5,2,10,0.00
2013-3-9,60.3,46.3,33.8,29.8,24.6,13.9,72,44,25,30.46,30.34,4,1,6,0.00
2013-3-10,63.0,51.8,44.5,35.5,31.6,28.1,55,47,31,30.36,30.22,6,2,11,0.00
2013-3-11,52.4,48.7,45.5,50.6,45.9,34.8,98,91,56,30.23,29.92,8,3,12,0.78
2013-3-12,50.8,42.8,35.7,50.5,38.5,31.3,99,86,58,30.15,29.86,6,3,8,0.21
2013-3-13,45.1,37.1,28.2,31.8,23.6,17.6,85,60,37,30.28,30.14,6,3,11,0.00
2013-3-14,44.9,31.9,22.3,18.9,15.4,12.4,71,53,30,30.43,30.28,4,2,8,0.00
2013-3-15,66.2,46.6,30.1,41.3,28.8,16.3,80,53,26,30.36,30.06,8,2,11,0.00
2013-3-16,74.3,63.3,55.3,45.3,42.2,39.3,59,47,29,30.05,29.81,9,6,16,0.00
2013-3-17,70.3,60.8,46.2,48.2,45.3,43.1,89,58,39,30.03,29.88,8,3,13,0.00
2013-3-18,45.8,39.9,36.2,43.5,39.1,35.4,99,97,90,30.11,29.95,4,2,7,0.36
2013-3-19,56.0,45.1,35.6,42.7,30.0,14.7,99,62,24,30.18,29.98,7,2,12,0.01
2013-3-20,52.4,39.8,30.6,30.2,13.3,2.7,93,36,13,30.21,29.93,8,2,11,0.00
2013-3-21,36.1,28.1,19.4,28.4,15.6,11.2,93,62,37,30.11,29.88,6,2,9,0.04
2013-3-22,45.8,33.4,23.1,22.6,15.6,11.3,66,49,33,30.20,30.11,4,1,5,0.00
2013-3-23,56.0,43.2,35.6,43.6,34.5,21.6,91,72,50,30.17,29.98,3,1,5,0.04
2013-3-24,43.0,39.4,36.4,41.0,38.5,35.9,100,96,88,30.03,29.62,3,1,6,0.75
2013-3-25,37.4,32.4,29.0,36.9,24.1,18.8,99,72,55,30.04,29.64,8,4,12,0.03
2013-3-26,36.7,29.7,25.3,26.9,23.4,20.5,89,78,56,30.34,30.03,6,3,10,0.00
2013-3-27,43.5,33.5,27.1,26.9,23.6,18.3,85,68,50,30.42,30.33,5,3,9,0.00
2013-3-28,51.5,38.1,27.8,25.5,21.5,17.6,79,54,27,30.45,30.35,4,2,10,0.00
2013-3-29,54.7,41.3,34.6,37.9,27.2,19.7,97,61,27,30.45,30.34,5,1,6,0.04
2013-3-30,59.7,48.1,37.6,44.6,39.7,36.8,98,76,47,30.35,30.15,5,1,7,0.11
2013-3-31,51.9,47.0,45.6,47.5,44.8,39.6,98,92,63,30.16,29.98,4,1,6,0.19
2013-4-4,36.2,35.0,33.3,35.7,34.2,32.0,98,97,95,30.21,30.09,1,0,5,0.70
2013-4-5,57.2,44.8,35.7,42.4,36.4,28.8,98,76,35,30.21,30.06,6,2,11,0.00
2013-4-6,66.3,53.2,41.2,36.9,33.0,30.7,71,48,30,30.32,30.20,5,2,12,0.00
2013-4-7,65.6,56.0,45.1,44.8,39.1,31.2,69,54,44,30.27,30.15,8,4,13,0.00
2013-4-8,68.8,57.3,52.2,51.1,45.7,43.5,76,66,49,30.21,30.15,7,2,10,0.00
2013-4-9,80.1,69.7,57.3,55.6,53.6,50.3,78,57,42,30.25,30.13,8,4,12,0.00
2013-4-10,82.4,69.9,59.9,56.6,53.9,51.7,76,58,37,30.14,29.97,8,3,12,0.00
2013-4-11,72.6,65.0,58.1,61.9,55.5,51.2,96,73,51,30.00,29.73,9,4,14,0.72
2013-4-12,68.8,59.3,48.5,61.6,50.9,32.5,97,76,26,29.92,29.66,9,3,16,0.76
2013-4-13,70.9,55.9,44.5,41.2,36.5,27.5,77,52,20,30.13,29.90,6,2,7,0.00
2013-4-14,67.7,57.0,49.9,48.1,39.2,32.5,93,53,33,30.17,30.03,6,2,9,0.03
2013-4-15,63.1,54.4,49.4,55.5,52.3,47.9,99,93,74,30.29,30.03,2,0,5,0.22
2013-4-16,76.1,63.1,54.1,58.7,55.8,53.4,98,79,52,30.36,30.24,5,2,7,0.00
2013-4-17,74.2,63.3,58.4,61.0,57.5,55.2,95,82,63,30.31,30.18,5,1,7,0.08
2013-4-18,72.3,63.9,57.2,60.4,56.8,54.1,96,79,54,30.18,29.98,6,2,10,0.01
2013-4-19,63.1,57.2,41.1,61.4,55.3,35.7,97,93,80,29.99,29.77,10,5,28,0.54
2013-4-20,57.6,44.9,34.8,34.9,29.7,25.3,79,57,34,30.40,29.99,5,3,9,0.00
2013-4-21,60.8,49.0,39.5,37.6,31.6,27.4,74,52,35,30.53,30.40,4,1,7,0.00
2013-4-22,64.1,49.8,41.4,39.2,36.6,31.3,84,63,35,30.49,30.29,3,1,6,0.00
2013-4-23,70.5,55.1,42.0,45.9,37.2,27.7,67,52,36,30.36,30.17,5,2,9,0.00
2013-4-24,67.1,58.5,48.1,56.7,49.9,44.8,93,74,53,30.20,30.07,7,3,11,0.02
2013-4-25,65.7,51.3,38.9,45.6,32.3,20.4,94,56,18,30.42,30.16,5,2,10,0.00
2013-4-26,67.6,55.0,43.5,37.8,32.7,27.2,58,44,31,30.51,30.37,4,1,7,0.00
2013-4-27,55.4,51.2,48.0,49.8,45.0,35.7,98,81,48,30.45,30.33,2,0,5,0.80
2013-4-28,50.3,48.2,44.7,50.0,47.7,44.0,99,98,97,30.34,30.12,3,1,8,1.57
2013-4-29,68.7,58.0,49.5,58.2,53.0,49.2,99,85,59,30.18,30.02,2,0,5,0.03
2013-4-30,74.9,61.4,53.5,57.1,54.0,46.6,98,79,41,30.22,30.05,3,1,8,0.00
2013-5-1,62.8,56.9,53.6,54.9,52.1,50.6,95,84,67,30.34,30.21,2,0,5,0.00
2013-5-2,59.7,53.8,51.5,55.5,52.3,50.4,99,95,83,30.36,30.29,2,0,5,0.05
2013-5-3,54.9,51.1,49.8,51.9,50.6,49.5,99,98,85,30.31,30.23,1,0,6,0.02
2013-5-4,47.8,46.7,44.9,47.5,45.5,40.6,99,96,84,30.16,30.07,2,1,6,0.42
2013-5-5,48.6,46.5,43.7,48.3,46.2,43.4,99,99,98,30.10,29.92,3,1,8,3.48
2013-5-6,64.3,53.9,46.5,52.3,46.8,42.4,100,80,47,29.98,29.89,4,1,9,0.10
2013-5-7,65.6,52.0,44.0,50.9,45.4,35.3,97,81,36,30.05,29.95,3,0,5,0.14
2013-5-8,66.2,56.3,49.3,55.8,51.7,47.9,97,85,61,30.14,30.01,4,0,7,0.02
2013-5-9,72.5,61.4,51.7,60.7,54.0,49.4,95,78,55,30.20,30.10,2,0,5,0.32
2013-5-10,73.7,64.4,57.3,60.1,55.6,52.9,89,74,54,30.17,30.03,5,2,19,0.02
2013-5-11,70.9,62.1,55.5,61.7,56.7,53.2,93,83,68,29.98,29.87,3,0,5,0.20
2013-5-12,62.0,53.7,47.0,53.0,41.2,29.7,93,65,38,30.16,29.94,5,2,8,0.00
2013-5-13,61.4,50.3,41.5,34.4,30.5,23.1,68,48,24,30.30,30.16,4,2,8,0.00
2013-5-14,71.3,56.8,41.5,50.7,39.6,30.3,74,54,33,30.34,30.16,4,1,5,0.00
2013-5-15,84.1,70.4,58.5,57.7,52.7,48.4,76,55,33,30.19,30.02,3,1,5,0.00
2013-5-16,77.1,68.2,60.9,56.9,53.4,48.1,72,60,41,30.09,30.01,3,0,6,0.00
2013-5-17,78.3,68.1,60.0,60.2,56.2,52.0,84,67,42,30.16,30.06,3,1,8,0.00
2013-5-18,64.8,62.1,59.3,62.2,59.6,54.9,98,92,71,30.15,30.09,3,1,11,0.89
2013-5-19,73.7,64.2,60.5,66.6,62.1,59.9,99,93,75,30.17,30.07,3,0,6,0.23
2013-5-20,78.9,64.0,59.2,65.3,61.2,58.9,99,92,58,30.18,30.11,2,0,5,0.01
2013-5-21,81.4,72.0,62.3,67.2,63.0,60.4,97,75,56,30.12,30.00,2,0,5,0.00
2013-5-22,78.9,66.9,61.3,67.3,61.5,58.2,98,84,57,30.06,29.92,4,1,9,0.37
2013-5-23,77.1,65.5,58.4,64.2,59.0,52.9,99,82,51,30.00,29.91,4,1,5,0.01
2013-5-24,64.2,57.9,51.7,55.0,45.6,37.9,89,66,42,30.31,29.94,6,2,9,0.00
2013-5-25,72.6,58.2,46.9,44.6,39.1,35.5,70,51,28,30.41,30.28,4,2,8,0.00
2013-5-26,71.3,60.4,48.3,52.5,44.9,33.4,87,58,41,30.35,30.25,3,0,5,0.04
2013-5-27,79.4,65.3,54.9,58.9,53.4,47.4,84,67,46,30.34,30.20,3,1,5,0.00
2013-5-28,80.0,69.4,61.6,63.0,58.4,55.5,87,69,45,30.26,30.18,3,1,7,0.00
2013-5-29,81.5,69.7,59.6,64.5,59.9,56.5,93,73,45,30.28,30.19,3,1,6,0.00
2013-5-30,80.2,68.7,59.5,63.5,60.1,57.9,95,76,53,30.32,30.21,3,0,5,0.00
2013-5-31,78.4,69.8,62.5,61.9,60.1,58.4,96,73,52,30.26,30.16,3,1,7,0.00
2013-6-1,77.8,70.5,63.5,63.5,61.6,59.2,92,74,54,30.17,30.06,4,1,7,0.01
2013-6-2,68.2,64.3,62.2,66.7,63.1,61.3,99,96,88,30.09,29.97,3,1,6,0.51
2013-6-3,76.4,66.9,61.4,67.5,62.3,59.5,99,86,62,30.03,29.93,2,0,5,0.01
2013-6-4,79.3,68.3,60.0,64.8,60.8,56.8,94,78,53,30.13,30.02,2,0,5,0.00
2013-6-5,77.5,67.5,62.7,67.0,63.6,61.5,98,88,68,30.14,30.00,2,0,7,0.50
2013-6-6,74.7,66.9,62.1,67.7,64.1,61.5,99,91,77,30.04,29.83,2,0,9,0.15
2013-6-7,69.0,63.9,61.4,67.3,63.2,60.8,100,98,93,29.89,29.74,2,0,5,2.09
2013-6-8,78.5,66.4,58.3,67.1,62.7,58.0,99,89,63,30.15,29.89,2,0,5,0.13
2013-6-9,78.1,66.8,62.5,70.1,64.4,60.3,99,92,71,30.20,30.08,3,0,5,2.22
2013-6-10,74.9,66.9,62.3,66.5,63.1,56.9,99,89,56,30.09,29.96,5,1,8,0.62
2013-6-11,80.9,69.8,61.3,67.1,62.6,60.4,98,80,54,30.08,30.00,2,0,5,0.04
2013-6-12,87.3,75.2,65.1,74.0,65.8,59.3,87,74,50,30.09,29.97,2,0,5,0.00
2013-6-13,85.7,73.2,66.3,67.1,62.9,58.7,92,72,42,29.98,29.75,5,2,6,0.17
2013-6-14,74.5,66.2,58.6,61.8,55.3,52.1,88,69,48,30.13,29.85,5,2,9,0.00
2013-6-15,80.5,67.8,56.6,63.0,57.5,52.4,90,71,49,30.22,30.11,3,0,5,0.00
2013-6-16,80.6,70.5,60.6,66.5,62.0,58.0,91,75,54,30.19,30.07,2,0,5,0.00
2013-6-17,76.1,69.4,64.0,69.6,65.5,62.5,97,87,74,30.10,29.99,2,0,5,0.14
2013-6-18,80.5,67.4,62.2,70.1,64.6,58.9,98,91,61,30.01,29.87,3,0,5,0.02
2013-6-19,77.6,67.9,61.3,65.8,61.4,57.8,90,80,62,30.18,29.99,3,0,5,0.00
2013-6-20,79.0,68.8,62.2,66.0,62.7,59.9,95,82,63,30.28,30.17,2,0,5,0.00
2013-6-21,81.0,69.2,61.8,63.8,61.9,60.2,96,79,53,30.32,30.22,2,0,5,0.00
2013-6-22,82.2,69.5,59.8,62.1,59.2,55.5,96,73,42,30.31,30.17,2,0,5,0.00
2013-6-23,81.1,69.8,63.1,68.7,63.3,58.7,97,81,60,30.27,30.17,1,0,5,0.14
2013-6-24,80.7,69.7,62.5,71.3,65.9,61.9,99,89,65,30.28,30.16,2,0,5,0.14
2013-6-25,83.4,69.7,64.5,71.1,65.9,62.6,98,88,60,30.21,30.08,1,0,5,0.05
2013-6-26,82.6,71.0,63.1,72.4,67.1,61.8,97,88,62,30.11,29.98,1,0,5,0.07
2013-6-27,83.6,71.8,62.0,72.3,66.6,60.3,97,84,60,30.01,29.82,4,0,5,0.11
2013-6-28,83.8,72.8,65.8,68.5,65.4,62.6,97,79,54,29.88,29.68,3,1,6,0.06
2013-6-29,81.0,70.0,61.0,67.4,62.4,57.0,98,79,54,29.77,29.68,2,0,5,0.01
2013-6-30,81.0,69.3,61.3,67.1,61.5,57.1,92,77,47,29.87,29.75,1,0,5,0.06
2013-7-1,78.9,68.0,62.6,68.9,64.3,61.3,99,89,62,30.01,29.85,2,0,8,2.22
2013-7-2,80.8,68.8,62.7,68.8,65.3,62.1,99,90,62,30.18,30.00,2,1,5,0.12
2013-7-3,71.9,65.5,60.0,70.8,65.0,59.7,99,98,93,30.28,30.15,4,0,5,3.01
2013-7-4,69.8,64.0,60.1,69.8,63.8,59.8,100,100,99,30.30,30.23,3,0,7,1.94
2013-7-5,69.0,65.5,64.4,67.2,65.1,64.3,100,99,90,30.31,30.24,3,1,8,0.13
2013-7-6,77.3,68.2,64.1,71.3,66.7,63.8,100,95,76,30.27,30.17,3,1,5,1.54
2013-7-7,76.8,70.6,66.3,70.0,67.9,66.0,100,91,78,30.23,30.13,2,1,6,0.10
2013-7-9,86.8,76.8,68.7,72.4,68.8,64.3,97,78,48,30.23,30.11,2,0,5,0.00
2013-7-10,82.4,70.1,64.7,73.1,67.4,63.8,99,92,67,30.18,30.00,5,0,6,1.47
2013-7-11,76.4,69.2,64.9,71.5,67.5,64.5,100,94,82,30.04,29.94,1,0,5,0.00
2013-7-12,78.8,69.2,64.0,69.1,65.4,60.0,99,89,67,30.06,29.94,2,0,5,0.02
2013-7-13,73.0,66.1,61.1,67.3,63.7,59.8,98,92,80,30.18,30.06,1,0,5,0.00
2013-7-14,69.7,66.9,64.0,69.7,66.5,63.0,100,99,93,30.35,30.17,3,0,5,1.24
2013-7-15,81.3,71.1,65.9,71.1,67.4,65.6,100,89,65,30.40,30.33,1,0,5,0.00
2013-7-16,87.5,75.0,66.6,72.3,68.3,65.6,98,81,54,30.39,30.29,1,0,5,0.00
2013-7-17,85.5,72.9,67.5,72.3,68.6,65.7,98,87,58,30.33,30.20,2,0,5,0.16
2013-7-18,85.6,73.6,64.5,73.8,68.0,63.4,98,84,62,30.27,30.13,1,0,5,0.00
2013-7-19,86.4,73.7,65.9,73.0,68.5,65.0,99,85,56,30.17,30.03,1,0,5,0.01
2013-7-20,81.6,71.4,67.4,72.6,68.5,65.9,98,91,69,30.09,29.99,1,0,5,0.09
2013-7-21,81.0,69.9,65.6,72.5,68.1,65.3,99,94,72,30.08,30.01,1,0,5,0.61
2013-7-22,78.0,72.7,66.0,73.5,69.4,63.1,99,90,80,30.05,29.90,2,0,7,0.44
2013-7-23,82.3,71.0,63.8,70.5,65.8,62.5,97,85,59,29.98,29.85,2,0,5,0.09
2013-7-24,82.0,71.0,65.1,72.1,66.1,63.5,99,86,61,29.92,29.84,2,1,5,0.01
2013-7-25,83.2,70.6,63.3,67.6,63.5,59.6,97,80,46,30.09,29.91,2,0,5,0.00
2013-7-26,81.4,69.8,62.3,68.9,64.5,60.3,97,84,62,30.15,30.06,2,0,6,0.50
2013-7-27,77.4,69.2,64.2,70.6,66.3,63.6,99,91,70,30.10,29.94,2,0,5,0.49
2013-7-28,81.5,69.6,64.1,68.7,64.9,61.3,99,86,62,30.09,29.96,1,0,5,0.00
2013-7-29,79.3,68.4,59.6,65.1,60.5,55.7,97,77,54,30.26,30.09,1,0,5,0.00
2013-7-30,79.4,69.1,60.2,70.0,62.3,54.1,94,79,66,30.30,30.20,2,0,5,0.00
2013-7-31,74.7,67.6,63.9,69.4,65.8,63.1,99,94,81,30.24,30.03,1,0,5,0.39
2013-8-1,78.0,69.5,65.4,71.5,66.6,63.8,99,91,72,30.05,29.97,2,0,5,0.36
2013-8-2,81.4,71.2,64.0,70.0,65.1,62.2,94,82,64,30.10,30.01,1,0,5,0.00
2013-8-3,79.8,71.4,65.5,69.2,65.6,61.8,97,83,65,30.10,30.02,1,0,5,0.00
2013-8-4,77.3,70.6,64.8,68.4,64.8,60.1,93,82,70,30.10,30.03,3,1,5,0.00
2013-8-5,79.4,69.8,61.8,68.6,63.7,59.5,94,82,64,30.14,30.03,2,0,6,0.00
2013-8-6,81.8,71.1,65.7,70.7,66.9,64.5,98,88,62,30.10,30.01,2,0,5,0.06
2013-8-7,69.0,67.6,66.7,68.7,67.2,66.1,99,99,98,30.12,30.06,2,0,5,1.02
2013-8-8,78.6,69.4,65.5,73.1,68.3,65.3,100,96,79,30.13,30.07,1,0,5,0.54
2013-8-9,81.2,71.6,67.4,73.7,69.2,65.6,99,92,74,30.15,30.08,1,0,5,0.89
2013-8-10,78.2,70.2,66.2,73.9,68.9,65.8,100,96,83,30.19,30.12,2,0,5,2.91
2013-8-11,80.3,72.0,65.7,72.8,69.6,65.4,100,93,76,30.22,30.13,1,0,5,0.35
2013-8-12,83.6,70.6,66.5,73.1,68.4,64.7,99,93,68,30.17,30.04,5,0,5,1.30
2013-8-13,78.1,69.3,65.6,72.9,67.8,64.0,100,95,77,30.05,29.90,3,0,5,0.13
2013-8-14,74.7,65.8,61.6,64.3,60.5,56.1,96,84,61,30.14,29.96,3,1,5,0.00
2013-8-15,65.5,60.6,56.0,59.8,57.3,54.6,98,89,76,30.22,30.13,1,0,5,0.01
2013-8-16,71.2,61.7,55.9,61.8,57.4,54.3,97,87,68,30.24,30.17,1,0,5,0.00
2013-8-17,65.4,60.3,56.8,60.7,58.2,54.4,99,93,79,30.26,30.20,1,0,5,0.19
2013-8-18,73.9,64.5,59.4,68.6,62.8,59.1,100,95,79,30.32,30.21,2,0,5,0.15
2013-8-19,69.8,64.9,61.8,68.0,63.9,61.5,100,97,88,30.27,30.17,1,0,5,1.62
2013-8-20,77.2,67.7,63.3,69.8,65.8,63.0,100,94,76,30.28,30.18,1,0,5,0.00
2013-8-21,72.5,67.6,65.0,69.2,66.6,64.7,100,97,89,30.30,30.20,1,0,5,0.03
2013-8-22,80.3,73.8,67.4,71.0,68.2,65.4,94,83,68,30.24,30.11,1,0,5,0.01
2013-8-23,80.9,70.3,63.6,71.5,65.8,62.4,97,86,64,30.15,30.04,2,0,5,0.00
2013-8-24,78.5,67.8,61.8,64.9,62.2,56.6,98,84,57,30.37,30.14,2,0,5,0.00
2013-8-25,74.8,65.6,58.3,62.5,57.8,53.3,93,77,58,30.46,30.35,1,0,5,0.00
2013-8-26,76.9,66.4,56.6,66.0,60.0,55.3,97,81,61,30.41,30.21,2,0,5,0.00
2013-8-27,78.7,67.9,60.6,68.8,63.4,58.6,94,86,69,30.24,30.09,3,0,5,0.00
2013-8-28,82.1,72.5,65.5,72.0,67.0,63.4,93,83,67,30.12,30.01,2,1,5,0.00
2013-8-29,82.9,74.5,69.1,72.9,68.6,65.4,91,82,67,30.04,29.96,3,1,6,0.00
2013-8-30,78.9,70.5,67.4,72.1,68.5,66.7,99,94,78,30.10,30.00,1,0,5,0.06
2013-8-31,84.1,71.1,66.2,73.3,68.1,65.2,99,91,66,30.04,29.94,5,0,8,0.06
2013-9-1,83.8,71.8,65.5,72.9,67.7,64.0,98,88,63,29.98,29.85,5,0,5,0.26
2013-9-2,80.6,70.1,64.6,72.3,67.1,63.7,98,91,73,29.99,29.90,2,0,5,0.01
2013-9-3,78.3,69.0,60.4,68.9,64.5,59.1,98,86,68,30.07,29.91,4,1,6,0.20
2013-9-4,81.4,69.6,60.4,69.0,63.9,59.2,98,83,62,30.18,30.06,1,0,5,0.01
2013-9-5,79.7,69.2,62.7,65.5,60.9,53.5,96,77,44,30.21,30.14,2,0,5,0.00
2013-9-6,78.0,68.2,59.6,64.5,60.5,56.8,93,77,58,30.26,30.14,2,0,5,0.00
2013-9-7,79.7,67.0,60.0,66.7,62.3,58.6,96,85,62,30.19,30.07,1,0,5,0.00
2013-9-8,77.0,68.7,61.6,68.9,64.7,60.4,98,87,72,30.09,30.02,0,0,5,0.00
2013-9-9,82.4,70.9,64.4,69.1,65.9,63.2,98,85,63,30.21,30.09,0,0,5,0.00
2013-9-10,83.7,72.1,63.7,69.0,65.4,61.9,97,81,49,30.31,30.20,0,0,5,0.00
2013-9-11,82.3,70.7,64.0,70.1,65.9,62.2,97,86,64,30.30,30.17,0,0,5,0.00
2013-9-12,78.7,70.0,63.1,70.2,66.0,61.3,97,88,74,30.17,29.93,3,0,5,0.03
2013-9-13,74.2,65.3,57.8,62.6,58.6,50.3,98,80,59,29.99,29.89,3,1,5,0.01
2013-9-14,72.1,60.1,52.3,58.1,52.5,48.9,92,77,53,30.20,29.99,2,1,5,0.00
2013-9-15,74.3,63.1,55.6,62.6,57.4,53.3,93,82,59,30.30,30.19,3,0,6,0.00
2013-9-16,76.9,66.0,58.6,64.7,60.2,56.9,96,82,61,30.24,30.16,0,0,5,0.00
2013-9-17,67.9,61.6,57.5,59.9,56.4,53.5,92,84,66,30.35,30.24,0,0,5,0.00
2013-9-18,64.1,58.8,54.8,59.3,55.8,52.5,97,90,80,30.36,30.26,0,0,5,0.01
2013-9-19,76.4,64.6,58.4,67.1,61.6,57.8,99,90,70,30.28,30.16,0,0,5,0.00
2013-9-20,77.6,68.0,59.9,66.9,63.2,59.0,99,86,60,30.17,29.99,0,0,5,0.01
2013-9-21,66.3,62.4,58.2,63.7,60.8,57.9,99,95,86,30.00,29.78,3,1,6,1.19
2013-9-22,68.8,60.2,53.8,58.3,54.7,51.9,99,83,59,30.01,29.83,3,2,7,0.01
2013-9-23,72.2,61.4,55.3,61.0,55.7,51.6,92,82,62,30.14,30.00,1,0,6,0.00
2013-9-24,67.8,59.5,55.2,60.7,57.2,54.4,98,92,75,30.16,30.00,1,0,5,0.00
2013-9-25,60.9,58.5,55.6,59.7,58.0,55.3,99,98,95,30.01,29.94,1,0,5,1.29
2013-9-26,67.5,59.1,55.2,62.5,57.4,54.3,100,94,81,30.14,29.98,2,0,5,0.01
2013-9-27,71.4,61.0,52.8,60.1,55.5,50.9,96,83,61,30.26,30.14,2,0,5,0.00
2013-9-28,66.0,59.2,53.5,58.3,54.7,51.8,95,85,70,30.33,30.23,1,0,5,0.00
2013-9-29,68.3,58.4,50.6,57.6,53.2,48.7,94,84,62,30.26,30.12,1,0,5,0.00
2013-9-30,71.3,60.2,53.4,59.3,55.8,52.6,100,86,57,30.19,30.09,1,0,5,0.00
2013-10-1,74.2,62.0,52.0,62.0,57.6,51.2,99,86,62,30.25,30.14,1,0,5,0.00
2013-10-2,74.7,64.6,56.0,62.9,59.0,54.9,98,83,56,30.26,30.16,2,0,5,0.01
2013-10-3,76.1,65.6,58.8,65.0,60.4,57.4,96,84,63,30.22,30.14,2,0,5,0.00
2013-10-4,77.9,67.3,59.2,64.8,61.1,58.0,96,82,54,30.25,30.16,0,0,5,0.00
2013-10-5,80.3,68.4,60.4,65.9,62.4,59.1,97,82,56,30.22,30.10,2,0,5,0.00
2013-10-6,76.1,67.6,62.6,64.3,61.7,59.6,91,82,64,30.12,29.94,3,1,8,0.02
2013-10-7,64.5,57.2,52.4,61.9,54.6,47.8,99,91,74,30.12,29.85,4,2,7,1.55
2013-10-8,65.8,55.4,50.1,53.3,48.5,44.8,89,78,55,30.30,30.12,4,1,5,0.00
2013-10-9,69.9,55.7,45.1,57.1,47.5,41.4,93,75,53,30.34,30.22,1,0,5,0.00
2013-10-10,68.3,58.0,48.3,55.0,50.3,44.2,97,77,57,30.23,30.12,3,1,7,0.00
2013-10-11,70.6,62.8,54.2,55.9,53.4,49.6,88,72,48,30.14,30.04,3,1,6,0.00
2013-10-12,71.3,61.9,54.6,60.3,56.0,52.0,92,81,66,30.18,30.07,2,0,5,0.00
2013-10-13,68.7,61.4,58.1,61.7,59.0,56.9,98,92,76,30.29,30.17,1,0,5,0.31
2013-10-14,65.7,59.5,56.0,61.7,58.0,55.0,99,95,81,30.31,30.23,0,0,5,0.02
2013-10-15,63.6,57.2,54.2,58.0,55.3,53.6,99,94,80,30.28,30.15,1,0,5,0.05
2013-10-16,66.1,58.6,53.2,58.9,54.9,50.6,95,88,72,30.18,30.05,0,0,5,0.00
2013-10-17,65.1,59.7,53.1,63.1,58.6,52.0,99,96,91,30.06,29.93,0,0,5,0.04
2013-10-18,66.4,55.2,47.3,56.6,51.0,44.8,97,86,65,30.13,30.01,3,1,5,0.00
2013-10-19,60.6,54.7,48.4,55.7,51.8,46.3,98,90,75,30.06,29.93,2,0,5,0.00
2013-10-20,62.2,50.1,40.0,48.3,43.1,38.2,97,79,47,30.19,30.04,2,1,5,0.01
2013-10-21,65.9,53.0,45.2,52.8,47.6,42.2,93,82,60,30.23,30.09,2,0,7,0.00
2013-10-22,64.0,55.5,50.7,52.5,49.8,46.7,95,82,63,30.11,29.90,2,0,5,0.01
2013-10-23,54.2,46.4,34.9,47.2,37.1,29.1,94,71,46,30.14,29.83,5,2,7,0.00
2013-10-24,50.7,40.8,32.3,38.6,33.4,28.9,92,76,55,30.30,30.14,3,0,5,0.00
2013-10-25,45.4,36.7,29.2,36.8,27.6,22.9,90,71,46,30.50,30.30,5,2,7,0.00
2013-10-26,55.4,40.5,29.3,37.2,30.7,25.1,87,70,41,30.49,30.22,2,0,5,0.00
2013-10-27,61.8,52.4,44.1,48.9,43.6,35.7,87,73,55,30.25,30.18,3,0,5,0.00
2013-10-28,57.4,53.2,50.3,54.8,50.9,48.5,98,92,84,30.36,30.20,0,0,5,0.14
2013-10-29,64.4,56.0,50.0,54.8,50.7,48.8,98,84,58,30.44,30.34,2,0,5,0.00
2013-10-30,72.4,61.4,54.7,57.4,53.9,49.9,89,77,55,30.37,30.24,1,0,5,0.00
2013-10-31,61.8,59.2,57.1,59.3,55.0,51.9,97,86,77,30.24,29.91,5,2,11,0.06
2013-11-1,73.5,61.9,53.4,60.4,55.3,46.2,97,81,44,29.92,29.71,9,2,11,0.10
2013-11-2,58.2,50.4,44.1,45.8,40.5,34.7,88,69,54,30.12,29.81,7,2,8,0.00
2013-11-3,55.3,45.9,39.7,37.2,35.4,32.7,86,68,47,30.47,30.10,4,1,6,0.01
2013-11-4,52.9,44.3,38.2,33.6,31.9,29.8,78,63,44,30.60,30.46,3,1,5,0.00
2013-11-5,55.0,44.3,36.0,43.7,33.4,27.8,87,67,36,30.65,30.54,2,0,6,0.00
2013-11-6,63.9,53.1,45.6,52.2,49.4,43.7,99,88,64,30.54,30.23,3,0,6,0.03
2013-11-7,55.6,49.6,37.9,53.3,44.2,28.7,98,82,61,30.24,30.10,6,2,8,0.02
2013-11-8,51.6,41.4,34.9,29.3,23.4,16.7,73,51,25,30.44,30.24,5,2,9,0.00
2013-11-9,54.6,44.9,38.1,33.3,27.0,21.2,61,50,38,30.47,30.33,3,1,7,0.00
2013-11-10,64.4,50.3,41.5,37.9,30.5,24.3,60,48,23,30.39,30.28,6,1,9,0.00
2013-11-11,59.1,47.5,37.3,32.1,28.2,24.2,63,48,34,30.42,30.26,4,1,9,0.00
2013-11-12,51.5,39.3,22.2,38.0,26.1,13.6,83,60,36,30.57,30.18,6,3,11,0.00
2013-11-13,42.8,29.8,20.6,18.5,14.5,9.6,77,56,26,30.70,30.54,6,3,11,0.00
2013-11-14,55.1,40.9,29.3,22.2,17.4,13.7,60,41,20,30.63,30.44,4,1,8,0.00
2013-11-15,49.3,45.1,38.7,48.1,35.9,10.4,99,74,29,30.44,30.30,5,1,6,0.13
2013-11-16,58.8,50.9,47.0,54.9,50.1,46.5,99,97,85,30.37,30.27,2,1,5,0.02
2013-11-17,57.8,54.6,52.2,57.8,54.1,51.8,100,99,96,30.30,29.98,4,2,11,0.49
2013-11-18,62.0,53.8,42.9,58.7,41.9,27.8,100,67,30,30.10,29.95,6,3,10,0.03
2013-11-19,50.7,42.5,35.6,31.8,24.9,19.1,68,51,30,30.35,30.10,5,2,13,0.00
2013-11-20,47.7,39.0,31.7,30.4,27.1,25.3,80,63,43,30.57,30.35,4,1,7,0.00
2013-11-21,47.9,43.2,37.9,47.4,40.0,30.3,99,89,72,30.61,30.50,3,1,5,0.24
2013-11-22,62.7,54.4,46.5,58.9,53.3,46.2,100,96,86,30.53,30.23,4,1,6,0.05
2013-11-23,53.9,43.9,30.9,53.3,39.7,22.5,100,86,52,30.32,30.18,7,2,18,0.00
2013-11-24,33.2,26.1,19.7,21.6,10.1,3.3,77,53,30,30.65,30.32,5,3,10,0.00
2013-11-25,36.3,28.4,21.8,23.6,10.5,4.6,80,47,31,30.66,30.46,4,2,8,0.00
2013-11-26,44.1,38.0,27.8,43.8,36.9,21.0,99,96,73,30.47,29.79,4,1,6,2.31
2013-11-27,41.8,28.6,20.9,41.5,25.7,15.4,99,89,77,30.32,29.72,10,5,15,0.08
2013-11-28,44.9,30.7,18.6,25.6,18.3,4.4,87,64,22,30.61,30.33,4,1,6,0.04
2013-11-29,52.2,39.3,30.5,25.8,22.4,18.4,75,53,30,30.68,30.59,3,1,6,0.00
2013-11-30,43.7,36.7,28.3,26.0,24.0,22.6,79,60,47,30.71,30.49,3,2,9,0.00
2013-12-1,56.2,42.4,32.7,37.4,30.6,21.9,79,64,48,30.49,30.13,2,1,5,0.00
2013-12-2,53.0,44.5,36.9,43.2,37.2,31.7,92,76,60,30.12,29.92,2,0,5,0.00
2013-12-3,53.2,47.7,42.8,48.5,45.8,41.6,99,93,81,30.05,29.95,5,1,7,0.01
2013-12-4,62.2,53.4,48.4,56.3,52.0,48.1,100,95,78,30.15,30.04,5,2,7,0.01
2013-12-5,65.1,59.7,56.0,62.6,58.4,55.5,99,96,84,30.17,30.05,6,2,12,0.37
2013-12-6,66.0,62.0,49.1,62.4,60.2,48.6,99,94,84,30.09,29.99,9,5,18,0.40
2013-12-7,50.6,43.0,37.7,50.0,41.0,37.2,100,93,80,30.47,30.06,6,2,9,0.02
2013-12-8,40.1,35.0,32.4,39.6,34.7,32.2,99,99,98,30.47,30.34,3,2,7,0.45
2013-12-9,51.1,45.3,32.6,51.1,45.2,32.4,100,100,98,30.34,30.13,8,2,12,0.45
2013-12-10,48.1,38.2,26.2,47.8,35.2,23.7,99,89,68,30.43,30.00,7,2,11,0.22
2013-12-11,47.9,35.1,24.9,25.0,20.6,16.1,91,59,32,30.59,30.43,4,1,8,0.00
2013-12-12,37.4,29.7,24.1,23.2,18.0,10.2,88,64,33,30.54,30.43,5,2,9,0.00
2013-12-13,47.7,35.5,26.3,22.7,16.9,9.4,55,47,36,30.54,30.39,3,1,6,0.00
2013-12-14,41.5,38.1,34.1,41.2,33.0,21.5,100,84,50,30.40,29.92,4,1,6,0.82
2013-12-15,43.3,34.1,26.9,43.0,32.2,25.7,99,93,79,30.25,29.88,5,3,8,0.00
2013-12-16,54.1,39.2,26.7,33.4,27.5,23.6,95,67,32,30.35,30.25,6,2,7,0.01
2013-12-17,59.2,46.5,36.7,34.6,29.4,22.4,68,53,32,30.28,30.04,8,3,12,0.00
2013-12-18,44.9,35.4,26.2,22.2,16.2,9.0,80,49,25,30.43,30.14,5,2,12,0.00
2013-12-19,60.5,47.1,36.6,28.1,21.7,11.1,44,37,27,30.45,30.30,7,2,10,0.00
2013-12-20,61.1,51.6,45.3,48.6,32.9,19.7,83,51,33,30.31,30.20,7,3,11,0.00
2013-12-21,61.8,56.5,53.1,60.8,55.0,48.6,100,95,82,30.23,30.04,8,4,14,0.68
2013-12-22,62.6,57.4,54.0,61.3,56.7,53.7,100,97,89,30.13,29.99,10,4,20,2.18
2013-12-23,55.2,45.0,32.4,55.2,43.9,29.8,100,96,88,30.29,30.08,5,2,7,0.21
2013-12-24,32.8,27.8,21.7,29.8,22.9,15.6,94,82,64,30.56,30.28,5,2,10,0.01
2013-12-25,36.3,26.7,19.9,18.0,15.0,11.3,84,63,43,30.65,30.50,4,1,6,0.00
2013-12-26,46.1,34.3,24.9,26.8,22.7,16.5,74,63,45,30.53,30.42,5,1,10,0.00
2013-12-27,49.1,38.0,29.7,29.6,25.4,23.0,82,62,41,30.59,30.49,3,1,6,0.00
2013-12-28,48.7,40.3,34.3,40.6,29.2,21.4,95,66,36,30.54,30.21,6,1,7,0.28
2013-12-29,51.3,40.9,36.2,46.6,39.3,35.4,100,94,80,30.20,29.93,5,2,7,0.70
2013-12-30,40.4,36.7,31.9,38.5,35.1,31.4,98,94,89,30.28,30.09,4,1,5,0.00
2013-12-31,38.5,32.2,27.8,31.8,25.0,20.0,98,76,54,30.52,30.26,5,2,7,0.00
2014-1-1,42.9,36.3,30.4,30.6,25.3,17.2,83,65,49,30.52,30.26,6,2,9,0.00
2014-1-2,45.5,36.3,18.6,44.7,32.6,12.5,98,86,71,30.26,29.78,8,2,14,0.04